createdAt,value
2023-05-21T00:00:12.665Z,3.40
2023-05-21T00:02:59.162Z,2.85
2023-05-21T00:05:46.957Z,3.60
2023-05-21T00:08:34.077Z,3.15
2023-05-21T00:11:19.548Z,3.40
2023-05-21T00:14:04.798Z,2.75
2023-05-21T00:16:50.277Z,3.17
2023-05-21T00:19:36.026Z,2.85
2023-05-21T00:22:21.495Z,2.88
2023-05-21T00:25:07.305Z,2.85
2023-05-21T00:27:52.664Z,3.00
2023-05-21T00:30:38.139Z,2.78
2023-05-21T00:33:26.305Z,2.90
2023-05-21T00:36:14.286Z,2.75
2023-05-21T00:38:59.603Z,2.80
2023-05-21T00:41:46.621Z,3.00
2023-05-21T00:44:35.341Z,2.85
2023-05-21T00:47:21.658Z,2.60
2023-05-21T00:50:08.522Z,2.35
2023-05-21T00:52:54.310Z,3.40
2023-05-21T00:55:40.554Z,3.10
2023-05-21T00:58:25.757Z,3.10
2023-05-21T01:01:13.881Z,2.83
2023-05-21T01:04:01.815Z,3.35
2023-05-21T01:06:47.462Z,2.88
2023-05-21T01:09:32.997Z,2.87
2023-05-21T01:12:20.549Z,2.55
2023-05-21T01:15:07.132Z,3.40
2023-05-21T01:17:53.170Z,2.97
2023-05-21T01:20:39.337Z,3.17
2023-05-21T01:23:25.200Z,3.25
2023-05-21T01:26:12.905Z,2.80
2023-05-21T01:28:58.834Z,3.10
2023-05-21T01:32:13.640Z,3.47
2023-05-21T01:35:09.776Z,3.80
2023-05-21T01:38:12.138Z,3.38
2023-05-21T01:43:56.169Z,2.80
2023-05-21T01:46:41.478Z,3.10
2023-05-21T01:49:27.187Z,3.20
2023-05-21T01:52:12.896Z,2.92
2023-05-21T01:54:58.239Z,3.28
2023-05-21T01:57:43.823Z,3.22
2023-05-21T02:00:29.598Z,3.70
2023-05-21T02:03:15.163Z,3.35
2023-05-21T02:06:00.415Z,3.47
2023-05-21T02:08:46.225Z,3.58
2023-05-21T02:11:32.082Z,3.60
2023-05-21T02:14:17.442Z,3.50
2023-05-21T02:17:03.276Z,3.60
2023-05-21T02:19:48.672Z,3.50
2023-05-21T02:22:34.244Z,3.70
2023-05-21T02:25:22.599Z,3.63
2023-05-21T02:28:08.246Z,3.20
2023-05-21T02:30:54.087Z,4.18
2023-05-21T02:33:42.760Z,3.35
2023-05-21T02:36:28.737Z,3.70
2023-05-21T02:39:15.542Z,3.70
2023-05-21T02:42:00.972Z,3.65
2023-05-21T02:44:46.225Z,3.90
2023-05-21T02:47:31.599Z,3.63
2023-05-21T02:50:17.016Z,4.05
2023-05-21T02:53:07.813Z,4.18
2023-05-21T02:55:53.932Z,4.30
2023-05-21T02:58:39.269Z,3.75
2023-05-21T03:01:24.750Z,4.35
2023-05-21T03:04:10.385Z,3.83
2023-05-21T03:06:57.534Z,3.92
2023-05-21T03:09:42.862Z,4.25
2023-05-21T03:12:28.860Z,3.67
2023-05-21T03:15:16.808Z,4.15
2023-05-21T03:18:03.115Z,3.75
2023-05-21T03:20:48.981Z,4.15
2023-05-21T03:23:34.930Z,3.80
2023-05-21T03:26:22.232Z,4.00
2023-05-21T03:29:07.966Z,3.90
2023-05-21T03:31:55.528Z,3.40
2023-05-21T03:34:41.182Z,3.60
2023-05-21T03:37:26.776Z,3.47
2023-05-21T03:40:12.644Z,3.90
2023-05-21T03:42:58.060Z,3.53
2023-05-21T03:45:44.584Z,3.78
2023-05-21T03:48:50.085Z,3.55
2023-05-21T03:51:39.550Z,3.60
2023-05-21T03:54:27.557Z,3.78
2023-05-21T03:57:17.153Z,3.53
2023-05-21T04:00:05.519Z,4.20
2023-05-21T04:03:01.647Z,3.55
2023-05-21T04:05:47.224Z,3.70
2023-05-21T04:08:32.614Z,3.55
2023-05-21T04:11:17.966Z,4.35
2023-05-21T04:14:03.680Z,4.22
2023-05-21T04:16:49.886Z,3.92
2023-05-21T04:19:35.339Z,4.28
2023-05-21T04:22:23.344Z,4.10
2023-05-21T04:25:09.615Z,3.83
2023-05-21T04:27:56.976Z,4.20
2023-05-21T04:30:42.532Z,4.00
2023-05-21T04:33:28.661Z,3.83
2023-05-21T04:36:13.638Z,4.30
2023-05-21T04:38:59.016Z,4.70
2023-05-21T04:41:44.843Z,4.35
2023-05-21T04:44:30.453Z,4.80
2023-05-21T04:47:21.159Z,4.70
2023-05-21T04:50:07.368Z,4.85
2023-05-21T04:52:54.674Z,4.60
2023-05-21T04:55:41.112Z,4.50
2023-05-21T04:58:27.976Z,4.70
2023-05-21T05:01:14.325Z,4.25
2023-05-21T05:03:59.703Z,5.10
2023-05-21T05:06:45.088Z,4.68
2023-05-21T05:09:31.697Z,4.93
2023-05-21T05:12:17.148Z,4.93
2023-05-21T05:15:02.625Z,5.18
2023-05-21T05:17:50.423Z,5.00
2023-05-21T05:20:36.267Z,4.97
2023-05-21T05:23:21.719Z,4.93
2023-05-21T05:26:07.134Z,5.05
2023-05-21T05:28:53.071Z,4.95
2023-05-21T05:31:38.474Z,5.20
2023-05-21T05:34:23.864Z,4.50
2023-05-21T05:37:09.331Z,5.28
2023-05-21T05:39:54.807Z,4.38
2023-05-21T05:42:40.319Z,5.00
2023-05-21T05:45:30.451Z,4.40
2023-05-21T05:48:16.758Z,4.70
2023-05-21T05:51:02.908Z,4.90
2023-05-21T05:53:49.900Z,4.88
2023-05-21T05:56:35.289Z,4.68
2023-05-21T05:59:22.951Z,4.60
2023-05-21T06:02:09.660Z,4.47
2023-05-21T06:04:55.142Z,5.30
2023-05-21T06:07:40.682Z,5.40
2023-05-21T06:10:26.233Z,4.75
2023-05-21T06:13:11.524Z,4.78
2023-05-21T06:15:56.837Z,5.13
2023-05-21T06:18:42.672Z,5.28
2023-05-21T06:21:28.514Z,5.15
2023-05-21T06:24:13.870Z,5.88
2023-05-21T06:26:59.221Z,5.25
2023-05-21T06:29:44.544Z,5.18
2023-05-21T06:32:30.032Z,5.97
2023-05-21T06:35:15.383Z,6.07
2023-05-21T06:38:00.940Z,5.75
2023-05-21T06:40:47.805Z,5.72
2023-05-21T06:43:42.865Z,5.38
2023-05-21T06:47:06.234Z,5.90
2023-05-21T06:49:51.630Z,5.38
2023-05-21T06:52:37.256Z,5.57
2023-05-21T06:55:22.957Z,5.63
2023-05-21T06:58:31.202Z,5.90
2023-05-21T07:01:17.018Z,5.75
2023-05-21T07:04:02.784Z,6.10
2023-05-21T07:06:49.119Z,5.43
2023-05-21T07:09:34.507Z,5.13
2023-05-21T07:12:20.390Z,5.60
2023-05-21T07:15:06.614Z,5.30
2023-05-21T07:17:53.014Z,5.47
2023-05-21T07:20:38.294Z,5.53
2023-05-21T07:23:25.234Z,5.80
2023-05-21T07:26:11.462Z,5.70
2023-05-21T07:28:57.057Z,5.50
2023-05-21T07:31:42.477Z,6.05
2023-05-21T07:34:29.935Z,5.93
2023-05-21T07:37:15.600Z,5.53
2023-05-21T07:40:01.043Z,6.00
2023-05-21T07:42:48.518Z,6.30
2023-05-21T07:45:37.886Z,5.95
2023-05-21T07:48:23.806Z,6.28
2023-05-21T07:51:15.651Z,6.57
2023-05-21T07:54:01.390Z,5.88
2023-05-21T07:56:51.739Z,6.18
2023-05-21T08:00:00.600Z,6.40
2023-05-21T08:02:47.918Z,6.68
2023-05-21T08:05:34.148Z,6.28
2023-05-21T08:08:20.330Z,5.78
2023-05-21T08:11:05.970Z,6.30
2023-05-21T08:13:53.057Z,6.43
2023-05-21T08:16:39.599Z,5.63
2023-05-21T08:19:25.398Z,5.60
2023-05-21T08:22:11.358Z,6.03
2023-05-21T08:25:00.696Z,5.85
2023-05-21T08:27:46.008Z,5.50
2023-05-21T08:30:32.406Z,5.05
2023-05-21T08:33:20.828Z,5.20
2023-05-21T08:36:07.466Z,5.47
2023-05-21T08:38:59.708Z,5.32
2023-05-21T08:44:48.466Z,5.70
2023-05-21T08:47:36.539Z,5.10
2023-05-21T08:50:26.551Z,5.43
2023-05-21T08:53:26.692Z,5.47
2023-05-21T08:56:15.303Z,5.70
2023-05-21T08:59:05.587Z,5.75
2023-05-21T09:01:55.259Z,5.60
2023-05-21T09:04:49.592Z,4.95
2023-05-21T09:07:43.944Z,5.22
2023-05-21T09:10:42.333Z,4.97
2023-05-21T09:13:28.900Z,5.18
2023-05-21T09:16:14.840Z,4.75
2023-05-21T09:19:04.457Z,4.78
2023-05-21T09:21:52.943Z,4.70
2023-05-21T09:24:41.881Z,4.53
2023-05-21T09:27:27.690Z,4.80
2023-05-21T09:30:15.085Z,4.70
2023-05-21T09:33:01.562Z,4.72
2023-05-21T09:35:47.307Z,4.50
2023-05-21T09:38:34.926Z,4.13
2023-05-21T09:41:30.777Z,4.85
2023-05-21T09:44:16.479Z,4.50
2023-05-21T09:47:02.286Z,4.22
2023-05-21T09:49:49.055Z,4.05
2023-05-21T09:52:37.209Z,4.40
2023-05-21T09:55:23.750Z,4.90
2023-05-21T09:58:10.799Z,4.22
2023-05-21T10:00:56.540Z,4.80
2023-05-21T10:03:46.070Z,4.85
2023-05-21T10:06:33.783Z,5.15
2023-05-21T10:09:20.210Z,5.60
2023-05-21T10:12:06.209Z,4.90
2023-05-21T10:15:04.143Z,5.25
2023-05-21T10:17:49.877Z,4.95
2023-05-21T10:20:36.306Z,5.45
2023-05-21T10:23:23.577Z,5.28
2023-05-21T10:26:10.180Z,5.68
2023-05-21T10:28:57.457Z,5.25
2023-05-21T10:31:46.528Z,5.80
2023-05-21T10:34:32.897Z,5.25
2023-05-21T10:37:18.859Z,5.82
2023-05-21T10:40:04.927Z,5.63
2023-05-21T10:43:26.030Z,6.05
2023-05-21T10:46:20.613Z,5.78
2023-05-21T10:49:51.479Z,5.95
2023-05-21T10:53:04.797Z,6.32
2023-05-21T10:56:06.670Z,5.68
2023-05-21T10:59:31.560Z,5.80
2023-05-21T11:02:19.358Z,5.55
2023-05-21T11:05:05.329Z,5.95
2023-05-21T11:07:56.300Z,5.40
2023-05-21T11:10:44.326Z,5.60
2023-05-21T11:13:51.858Z,6.20
2023-05-21T11:16:37.580Z,5.32
2023-05-21T11:19:34.056Z,5.55
2023-05-21T11:22:20.058Z,5.85
2023-05-21T11:25:06.470Z,5.25
2023-05-21T11:27:53.638Z,5.53
2023-05-21T11:30:41.018Z,5.60
2023-05-21T11:33:26.843Z,5.80
2023-05-21T11:36:13.472Z,5.82
2023-05-21T11:39:17.634Z,5.57
2023-05-21T11:42:04.701Z,5.10
2023-05-21T11:44:50.318Z,5.82
2023-05-21T11:47:36.542Z,6.25
2023-05-21T11:50:22.100Z,5.75
2023-05-21T11:53:08.960Z,4.53
2023-05-21T11:55:57.371Z,5.57
2023-05-21T11:58:43.094Z,5.47
2023-05-21T12:01:31.095Z,5.40
2023-05-21T12:04:16.937Z,5.85
2023-05-21T12:07:08.780Z,6.07
2023-05-21T12:12:53.996Z,6.28
2023-05-21T12:15:40.874Z,5.20
2023-05-21T12:18:26.611Z,5.25
2023-05-21T12:21:12.742Z,5.75
2023-05-21T12:23:58.415Z,4.97
2023-05-21T12:26:45.884Z,6.28
2023-05-21T12:29:32.057Z,4.78
2023-05-21T12:32:17.573Z,5.40
2023-05-21T12:35:03.166Z,6.63
2023-05-21T12:37:50.579Z,5.65
2023-05-21T12:40:38.384Z,5.60
2023-05-21T12:43:24.558Z,5.65
2023-05-21T12:46:14.959Z,5.82
2023-05-21T12:49:00.318Z,5.70
2023-05-21T12:51:45.846Z,6.03
2023-05-21T12:54:33.499Z,4.90
2023-05-21T12:57:21.136Z,5.28
2023-05-21T13:00:11.132Z,5.13
2023-05-21T13:02:59.558Z,5.22
2023-05-21T13:05:44.890Z,5.10
2023-05-21T13:08:30.150Z,4.90
2023-05-21T13:11:15.395Z,4.90
2023-05-21T13:14:00.788Z,5.57
2023-05-21T13:16:47.273Z,5.40
2023-05-21T13:19:32.855Z,4.90
2023-05-21T13:22:18.121Z,4.65
2023-05-21T13:25:03.652Z,4.38
2023-05-21T13:27:50.653Z,5.18
2023-05-21T13:30:36.494Z,4.80
2023-05-21T13:33:22.348Z,5.00
2023-05-21T13:36:07.623Z,5.10
2023-05-21T13:38:53.055Z,4.68
2023-05-21T13:41:38.524Z,4.35
2023-05-21T13:44:23.828Z,4.60
2023-05-21T13:47:10.470Z,4.13
2023-05-21T13:49:56.154Z,4.30
2023-05-21T13:52:41.653Z,5.00
2023-05-21T13:55:28.052Z,4.63
2023-05-21T13:58:13.632Z,5.43
2023-05-21T14:00:59.122Z,4.07
2023-05-21T14:03:44.409Z,4.40
2023-05-21T14:06:30.835Z,4.20
2023-05-21T14:09:16.430Z,4.13
2023-05-21T14:12:01.799Z,4.05
2023-05-21T14:14:49.596Z,3.90
2023-05-21T14:17:35.125Z,4.20
2023-05-21T14:20:20.337Z,4.28
2023-05-21T14:23:05.919Z,4.22
2023-05-21T14:25:51.235Z,4.47
2023-05-21T14:28:36.908Z,4.28
2023-05-21T14:31:23.344Z,4.68
2023-05-21T14:34:08.836Z,4.38
2023-05-21T14:36:54.164Z,4.32
2023-05-21T14:39:39.612Z,4.63
2023-05-21T14:42:25.410Z,4.85
2023-05-21T14:45:18.993Z,4.70
2023-05-21T14:48:11.736Z,4.72
2023-05-21T14:50:57.334Z,4.43
2023-05-21T14:53:42.565Z,4.75
2023-05-21T14:56:28.105Z,4.47
2023-05-21T14:59:14.253Z,4.65
2023-05-21T15:01:59.344Z,4.97
2023-05-21T15:04:44.680Z,5.25
2023-05-21T15:07:30.080Z,4.60
2023-05-21T15:10:17.242Z,4.55
2023-05-21T15:13:04.077Z,4.93
2023-05-21T15:15:49.738Z,4.40
2023-05-21T15:18:35.310Z,4.78
2023-05-21T15:21:20.836Z,5.07
2023-05-21T15:24:06.468Z,4.57
2023-05-21T15:26:51.907Z,4.40
2023-05-21T15:29:37.635Z,4.88
2023-05-21T15:32:23.024Z,4.60
2023-05-21T15:35:08.871Z,4.30
2023-05-21T15:37:54.129Z,4.05
2023-05-21T15:40:43.172Z,4.47
2023-05-21T15:43:29.000Z,4.68
2023-05-21T15:46:14.345Z,4.82
2023-05-21T15:48:59.747Z,3.75
2023-05-21T15:51:46.794Z,4.32
2023-05-21T15:54:32.543Z,4.32
2023-05-21T15:57:18.011Z,4.60
2023-05-21T16:00:04.990Z,4.47
2023-05-21T16:02:54.351Z,4.72
2023-05-21T16:05:39.725Z,5.22
2023-05-21T16:08:24.994Z,4.95
2023-05-21T16:11:10.425Z,4.55
2023-05-21T16:13:56.134Z,4.88
2023-05-21T16:16:41.213Z,4.50
2023-05-21T16:19:26.728Z,4.70
2023-05-21T16:22:11.864Z,5.15
2023-05-21T16:24:57.383Z,4.65
2023-05-21T16:27:42.661Z,5.75
2023-05-21T16:30:28.183Z,4.90
2023-05-21T16:33:13.733Z,6.28
2023-05-21T16:35:59.198Z,5.65
2023-05-21T16:38:44.801Z,6.28
2023-05-21T16:41:30.204Z,5.60
2023-05-21T16:44:15.689Z,5.75
2023-05-21T16:47:01.954Z,6.13
2023-05-21T16:49:47.361Z,6.65
2023-05-21T16:52:32.853Z,7.43
2023-05-21T16:55:18.054Z,6.80
2023-05-21T16:58:05.487Z,6.93
2023-05-21T17:00:51.036Z,6.70
2023-05-21T17:03:37.050Z,6.60
2023-05-21T17:06:23.408Z,7.00
2023-05-21T17:09:08.562Z,6.45
2023-05-21T17:11:53.759Z,6.82
2023-05-21T17:14:39.756Z,7.18
2023-05-21T17:17:25.333Z,6.90
2023-05-21T17:20:11.646Z,6.50
2023-05-21T17:22:57.035Z,6.63
2023-05-21T17:25:42.469Z,7.55
2023-05-21T17:28:27.874Z,6.40
2023-05-21T17:31:14.063Z,7.20
2023-05-21T17:34:00.232Z,7.53
2023-05-21T17:36:45.682Z,7.60
2023-05-21T17:39:31.116Z,7.95
2023-05-21T17:42:17.415Z,8.38
2023-05-21T17:45:02.978Z,7.25
2023-05-21T17:47:48.436Z,7.80
2023-05-21T17:50:34.192Z,8.35
2023-05-21T17:53:19.947Z,8.07
2023-05-21T17:56:06.257Z,9.40
2023-05-21T17:58:51.702Z,7.35
2023-05-21T18:01:39.622Z,8.52
2023-05-21T18:04:25.188Z,7.60
2023-05-21T18:07:10.644Z,8.18
2023-05-21T18:09:55.930Z,9.07
2023-05-21T18:12:41.482Z,8.43
2023-05-21T18:15:26.927Z,8.77
2023-05-21T18:18:19.775Z,8.10
2023-05-21T18:21:06.483Z,8.82
2023-05-21T18:23:51.934Z,7.30
2023-05-21T18:26:37.538Z,8.07
2023-05-21T18:29:22.966Z,8.10
2023-05-21T18:32:09.011Z,8.38
2023-05-21T18:34:54.435Z,8.90
2023-05-21T18:37:42.001Z,8.70
2023-05-21T18:40:30.724Z,8.88
2023-05-21T18:43:17.662Z,9.07
2023-05-21T18:46:02.740Z,9.40
2023-05-21T18:48:48.724Z,9.05
2023-05-21T18:51:34.029Z,9.75
2023-05-21T18:54:19.361Z,9.75
2023-05-21T18:57:04.782Z,10.57
2023-05-21T18:59:50.269Z,9.32
2023-05-21T19:02:36.941Z,9.55
2023-05-21T19:05:22.714Z,8.90
2023-05-21T19:08:07.907Z,9.90
2023-05-21T19:10:53.198Z,8.93
2023-05-21T19:13:38.431Z,7.85
2023-05-21T19:16:23.706Z,9.02
2023-05-21T19:19:09.207Z,9.50
2023-05-21T19:21:54.581Z,9.10
2023-05-21T19:24:41.755Z,8.75
2023-05-21T19:27:29.228Z,8.10
2023-05-21T19:30:14.332Z,8.57
2023-05-21T19:32:59.860Z,8.55
2023-05-21T19:35:45.310Z,8.48
2023-05-21T19:38:30.579Z,9.15
2023-05-21T19:41:17.360Z,8.40
2023-05-21T19:44:02.571Z,8.73
2023-05-21T19:46:49.782Z,8.60
2023-05-21T19:49:35.130Z,9.50
2023-05-21T19:52:20.453Z,10.85
2023-05-21T19:55:07.324Z,8.85
2023-05-21T19:57:52.395Z,9.15
2023-05-21T20:00:39.131Z,8.30
2023-05-21T20:03:26.140Z,9.77
2023-05-21T20:06:12.179Z,9.50
2023-05-21T20:08:57.737Z,8.73
2023-05-21T20:11:43.379Z,10.00
2023-05-21T20:14:28.879Z,9.82
2023-05-21T20:17:14.709Z,9.40
2023-05-21T20:20:01.275Z,10.88
2023-05-21T20:22:46.788Z,9.85
2023-05-21T20:25:32.246Z,9.95
2023-05-21T20:28:19.103Z,10.23
2023-05-21T20:31:05.936Z,9.45
2023-05-21T20:33:52.241Z,9.77
2023-05-21T20:36:37.854Z,9.15
2023-05-21T20:39:23.458Z,10.80
2023-05-21T20:42:10.664Z,11.13
2023-05-21T20:44:58.752Z,9.77
2023-05-21T20:47:44.785Z,9.07
2023-05-21T20:50:30.171Z,9.75
2023-05-21T20:53:15.733Z,9.65
2023-05-21T20:56:01.474Z,11.00
2023-05-21T20:58:50.511Z,10.50
2023-05-21T21:01:37.790Z,9.38
2023-05-21T21:04:24.543Z,10.80
2023-05-21T21:07:11.772Z,10.45
2023-05-21T21:09:57.329Z,11.50
2023-05-21T21:12:42.525Z,9.05
2023-05-21T21:15:27.850Z,10.75
2023-05-21T21:18:13.177Z,11.43
2023-05-21T21:20:58.849Z,10.90
2023-05-21T21:23:44.051Z,10.45
2023-05-21T21:26:29.450Z,11.60
2023-05-21T21:29:14.780Z,10.90
2023-05-21T21:32:00.241Z,11.48
2023-05-21T21:34:45.485Z,10.52
2023-05-21T21:37:30.945Z,10.55
2023-05-21T21:40:16.493Z,9.43
2023-05-21T21:43:01.790Z,10.77
2023-05-21T21:45:47.208Z,11.40
2023-05-21T21:48:32.834Z,11.48
2023-05-21T21:51:18.242Z,11.52
2023-05-21T21:54:03.966Z,10.30
2023-05-21T21:56:49.595Z,11.48
2023-05-21T21:59:38.270Z,12.43
2023-05-21T22:02:23.897Z,12.85
2023-05-21T22:05:09.245Z,13.57
2023-05-21T22:07:54.837Z,12.48
2023-05-21T22:10:40.464Z,12.18
2023-05-21T22:13:28.523Z,13.13
2023-05-21T22:16:15.056Z,12.43
2023-05-21T22:19:01.257Z,13.77
2023-05-21T22:21:47.197Z,13.68
2023-05-21T22:24:33.470Z,13.30
2023-05-21T22:27:18.841Z,13.40
2023-05-21T22:30:05.209Z,14.20
2023-05-21T22:32:51.473Z,12.52
2023-05-21T22:35:37.230Z,12.55
2023-05-21T22:38:22.544Z,14.50
2023-05-21T22:41:08.544Z,13.73
2023-05-21T22:43:53.987Z,11.30
2023-05-21T22:46:42.172Z,13.48
2023-05-21T22:49:27.887Z,12.82
2023-05-21T22:52:14.452Z,12.27
2023-05-21T22:55:00.577Z,11.05
2023-05-21T22:57:45.831Z,10.02
2023-05-21T23:00:31.461Z,11.98
2023-05-21T23:03:17.286Z,13.48
2023-05-21T23:06:02.867Z,13.35
2023-05-21T23:08:48.371Z,15.98
2023-05-21T23:11:33.752Z,15.95
2023-05-21T23:14:19.046Z,16.15
2023-05-21T23:17:05.614Z,14.20
2023-05-21T23:19:52.299Z,15.15
2023-05-21T23:22:37.948Z,13.80
2023-05-21T23:25:23.363Z,15.57
2023-05-21T23:28:08.793Z,16.40
2023-05-21T23:30:54.248Z,14.27
2023-05-21T23:33:39.540Z,14.95
2023-05-21T23:36:44.173Z,14.13
2023-05-21T23:39:29.727Z,13.02
2023-05-21T23:42:17.853Z,12.88
2023-05-21T23:45:03.578Z,14.05
2023-05-21T23:47:49.034Z,11.95
2023-05-21T23:50:34.346Z,14.32
2023-05-21T23:53:20.008Z,13.52
2023-05-21T23:56:05.626Z,11.38
2023-05-21T23:58:51.646Z,11.15
